sensor_id;sensor_type;location;lat;lon;timestamp;pressure;altitude;pressure_sealevel;temperature;humidity
46638;BME280;32365;46.938;7.390;2023-02-03T18:46:24;96785.97;;;3.90;75.42
46638;BME280;32365;46.938;7.390;2023-02-03T18:48:52;96787.69;;;3.81;75.64
46638;BME280;32365;46.938;7.390;2023-02-03T18:51:22;96789.41;;;3.81;76.08
46638;BME280;32365;46.938;7.390;2023-02-03T18:53:49;96780.38;;;3.68;76.32
46638;BME280;32365;46.938;7.390;2023-02-03T18:56:17;96775.78;;;3.72;75.73
46638;BME280;32365;46.938;7.390;2023-02-03T18:58:44;96790.13;;;3.65;76.25
46638;BME280;32365;46.938;7.390;2023-02-03T19:01:20;96783.69;;;3.61;76.88
46638;BME280;32365;46.938;7.390;2023-02-03T19:03:48;96780.97;;;3.62;76.40
46638;BME280;32365;46.938;7.390;2023-02-03T19:06:15;96773.56;;;3.77;76.19
46638;BME280;32365;46.938;7.390;2023-02-03T19:08:41;96777.63;;;3.88;75.50
46638;BME280;32365;46.938;7.390;2023-02-03T19:11:08;96782.88;;;3.87;75.48
46638;BME280;32365;46.938;7.390;2023-02-03T19:13:35;96790.94;;;3.65;75.77
46638;BME280;32365;46.938;7.390;2023-02-03T19:16:01;96787.78;;;3.53;76.64
46638;BME280;32365;46.938;7.390;2023-02-03T19:18:28;96793.63;;;3.46;77.00
46638;BME280;32365;46.938;7.390;2023-02-03T19:20:58;96796.53;;;3.43;77.68
46638;BME280;32365;46.938;7.390;2023-02-03T19:23:24;96795.97;;;3.57;77.00
46638;BME280;32365;46.938;7.390;2023-02-03T19:25:52;96798.63;;;3.47;77.03
46638;BME280;32365;46.938;7.390;2023-02-03T19:28:19;96796.19;;;3.46;77.42
46638;BME280;32365;46.938;7.390;2023-02-03T19:30:46;96788.19;;;3.41;77.69
46638;BME280;32365;46.938;7.390;2023-02-03T19:33:12;96784.22;;;3.46;77.48
46638;BME280;32365;46.938;7.390;2023-02-03T19:35:40;96785.50;;;3.50;77.00
46638;BME280;32365;46.938;7.390;2023-02-03T19:38:08;96776.16;;;3.41;76.96
46638;BME280;32365;46.938;7.390;2023-02-03T19:40:35;96790.00;;;3.30;77.08
46638;BME280;32365;46.938;7.390;2023-02-03T19:43:01;96790.81;;;3.31;76.96
46638;BME280;32365;46.938;7.390;2023-02-03T19:45:29;96793.97;;;3.43;76.90
46638;BME280;32365;46.938;7.390;2023-02-03T19:47:55;96795.97;;;3.39;77.17
46638;BME280;32365;46.938;7.390;2023-02-03T19:50:22;96814.13;;;3.28;78.20
46638;BME280;32365;46.938;7.390;2023-02-03T19:52:49;96829.19;;;3.31;78.17
46638;BME280;32365;46.938;7.390;2023-02-03T19:55:17;96836.34;;;3.09;79.25
46638;BME280;32365;46.938;7.390;2023-02-03T19:57:43;96829.91;;;3.05;79.05
46638;BME280;32365;46.938;7.390;2023-02-03T20:00:11;96833.25;;;2.87;79.39
46638;BME280;32365;46.938;7.390;2023-02-03T20:02:39;96831.00;;;3.02;78.72
46638;BME280;32365;46.938;7.390;2023-02-03T20:05:06;96821.41;;;2.86;80.04
46638;BME280;32365;46.938;7.390;2023-02-03T20:07:33;96822.34;;;2.85;79.86
46638;BME280;32365;46.938;7.390;2023-02-03T20:09:59;96822.59;;;3.10;78.87
46638;BME280;32365;46.938;7.390;2023-02-03T20:12:27;96830.03;;;2.85;78.93
46638;BME280;32365;46.938;7.390;2023-02-03T20:14:54;96829.09;;;2.49;80.75
46638;BME280;32365;46.938;7.390;2023-02-03T20:17:21;96829.09;;;2.49;81.57
46638;BME280;32365;46.938;7.390;2023-02-03T20:19:48;96821.06;;;2.43;81.73
46638;BME280;32365;46.938;7.390;2023-02-03T20:22:14;96822.94;;;2.41;81.56
46638;BME280;32365;46.938;7.390;2023-02-03T20:24:41;96831.69;;;2.39;81.93
46638;BME280;32365;46.938;7.390;2023-02-03T20:27:08;96835.19;;;2.38;81.99
46638;BME280;32365;46.938;7.390;2023-02-03T20:29:35;96828.59;;;2.35;82.19
46638;BME280;32365;46.938;7.390;2023-02-03T20:32:03;96828.22;;;2.30;82.70
46638;BME280;32365;46.938;7.390;2023-02-03T20:34:31;96835.22;;;2.28;82.79
46638;BME280;32365;46.938;7.390;2023-02-03T20:36:58;96834.78;;;2.42;82.19
46638;BME280;32365;46.938;7.390;2023-02-03T20:39:25;96809.50;;;2.39;82.53
46638;BME280;32365;46.938;7.390;2023-02-03T20:41:52;96805.09;;;2.59;81.37
46638;BME280;32365;46.938;7.390;2023-02-03T20:44:18;96814.13;;;2.64;80.70
46638;BME280;32365;46.938;7.390;2023-02-03T20:46:46;96805.16;;;2.77;79.51
46638;BME280;32365;46.938;7.390;2023-02-03T20:49:15;96808.03;;;2.92;79.26
46638;BME280;32365;46.938;7.390;2023-02-03T20:51:41;96814.47;;;2.97;78.45
46638;BME280;32365;46.938;7.390;2023-02-03T20:54:13;96819.00;;;3.03;78.13
46638;BME280;32365;46.938;7.390;2023-02-03T20:56:40;96815.84;;;2.91;78.36
46638;BME280;32365;46.938;7.390;2023-02-03T20:59:09;96814.88;;;2.74;79.39
46638;BME280;32365;46.938;7.390;2023-02-03T21:01:36;96824.88;;;2.57;79.96
46638;BME280;32365;46.938;7.390;2023-02-03T21:04:10;96829.00;;;2.40;81.62
46638;BME280;32365;46.938;7.390;2023-02-03T21:06:55;96819.19;;;2.36;82.05
46638;BME280;32365;46.938;7.390;2023-02-03T21:09:22;96822.78;;;2.43;81.21
46638;BME280;32365;46.938;7.390;2023-02-03T21:11:51;96831.44;;;2.32;82.23
46638;BME280;32365;46.938;7.390;2023-02-03T21:14:20;96834.44;;;2.18;82.44
46638;BME280;32365;46.938;7.390;2023-02-03T21:16:47;96830.44;;;2.05;83.09
46638;BME280;32365;46.938;7.390;2023-02-03T21:19:24;96831.38;;;2.04;83.18
46638;BME280;32365;46.938;7.390;2023-02-03T21:21:52;96825.59;;;2.12;82.92
46638;BME280;32365;46.938;7.390;2023-02-03T21:24:24;96828.41;;;2.09;82.99
46638;BME280;32365;46.938;7.390;2023-02-03T21:26:51;96820.38;;;2.04;83.69
46638;BME280;32365;46.938;7.390;2023-02-03T21:29:22;96821.56;;;1.99;83.78
46638;BME280;32365;46.938;7.390;2023-02-03T21:31:49;96823.34;;;1.89;84.31
46638;BME280;32365;46.938;7.390;2023-02-03T21:34:24;96821.22;;;1.75;85.13
46638;BME280;32365;46.938;7.390;2023-02-03T21:36:51;96821.63;;;1.80;85.24
46638;BME280;32365;46.938;7.390;2023-02-03T21:39:28;96816.06;;;1.94;84.90
46638;BME280;32365;46.938;7.390;2023-02-03T21:42:14;96825.53;;;1.74;85.08
46638;BME280;32365;46.938;7.390;2023-02-03T21:44:43;96821.22;;;1.75;85.29
46638;BME280;32365;46.938;7.390;2023-02-03T21:47:10;96812.88;;;1.82;85.12
46638;BME280;32365;46.938;7.390;2023-02-03T21:49:42;96814.06;;;1.88;84.63
46638;BME280;32365;46.938;7.390;2023-02-03T21:52:11;96810.84;;;1.86;84.46
46638;BME280;32365;46.938;7.390;2023-02-03T21:54:39;96819.44;;;1.75;84.96
46638;BME280;32365;46.938;7.390;2023-02-03T21:57:11;96822.03;;;1.65;85.51
46638;BME280;32365;46.938;7.390;2023-02-03T21:59:39;96817.59;;;1.58;85.21
46638;BME280;32365;46.938;7.390;2023-02-03T22:02:26;96818.81;;;1.63;85.94
46638;BME280;32365;46.938;7.390;2023-02-03T22:05:03;96816.91;;;1.56;85.31
46638;BME280;32365;46.938;7.390;2023-02-03T22:07:29;96819.34;;;1.47;86.03
46638;BME280;32365;46.938;7.390;2023-02-03T22:09:56;96818.13;;;1.32;85.60
46638;BME280;32365;46.938;7.390;2023-02-03T22:12:22;96828.31;;;1.22;87.42
46638;BME280;32365;46.938;7.390;2023-02-03T22:14:49;96829.00;;;1.34;87.44
46638;BME280;32365;46.938;7.390;2023-02-03T22:17:16;96847.56;;;1.36;85.93
46638;BME280;32365;46.938;7.390;2023-02-03T22:19:42;96842.84;;;1.31;86.76
46638;BME280;32365;46.938;7.390;2023-02-03T22:22:10;96846.88;;;1.34;86.72
46638;BME280;32365;46.938;7.390;2023-02-03T22:24:37;96841.22;;;1.40;86.97
